Time;durP1;ratioP1;P1;durP2;ratioP2;P2;SDS_P1;SDS_P2;PMS_P1;PMS_P2;Temp;Humidity;BMP_temperature;BMP_pressure;BME280_temperature;BME280_humidity;BME280_pressure;Samples;Min_cycle;Max_cycle;Signal;HPM_P1;HPM_P2
2023/12/24 00:00:10;;;;;;;1999.90;999.90;;;9.20;99.90;;;;;;5031482;28;20526;-73
2023/12/24 00:02:37;;;;;;;1999.90;999.90;;;9.30;99.90;;;;;;5029690;28;20805;-73
2023/12/24 00:05:04;;;;;;;1999.90;999.90;;;9.30;99.90;;;;;;5031371;28;20419;-73
2023/12/24 00:07:31;;;;;;;1999.90;999.90;;;9.30;99.90;;;;;;5030689;28;20879;-73
2023/12/24 00:09:57;;;;;;;1999.90;999.90;;;9.30;99.90;;;;;;5030881;28;20489;-72
2023/12/24 00:12:24;;;;;;;1999.90;999.90;;;9.30;99.90;;;;;;5029271;28;21042;-72
2023/12/24 00:14:51;;;;;;;1999.90;999.90;;;9.30;99.90;;;;;;5025267;28;20419;-71
2023/12/24 00:17:18;;;;;;;1999.90;999.90;;;9.30;99.90;;;;;;5057118;22;20437;-69
2023/12/24 00:19:46;;;;;;;1999.90;999.90;;;9.30;99.90;;;;;;5035216;28;20508;-70
2023/12/24 00:22:12;;;;;;;1999.90;999.90;;;9.40;99.90;;;;;;5035453;28;20411;-69
2023/12/24 00:24:41;;;;;;;1999.90;999.90;;;9.40;99.90;;;;;;5030512;28;20418;-70
2023/12/24 00:27:08;;;;;;;1999.90;999.90;;;9.40;99.90;;;;;;5031377;28;20982;-69
2023/12/24 00:29:34;;;;;;;1999.90;999.90;;;9.40;99.90;;;;;;5031206;28;20433;-69
2023/12/24 00:32:01;;;;;;;1999.90;999.90;;;9.40;99.90;;;;;;5035545;28;20462;-69
2023/12/24 00:34:27;;;;;;;1999.90;999.90;;;9.40;99.90;;;;;;5033559;28;20419;-70
2023/12/24 00:36:55;;;;;;;1999.90;999.90;;;9.30;99.90;;;;;;5031155;28;20497;-69
2023/12/24 00:39:22;;;;;;;1999.90;999.90;;;9.40;99.90;;;;;;5034675;28;20486;-68
2023/12/24 00:41:48;;;;;;;1999.90;999.90;;;9.40;99.90;;;;;;5033632;28;20419;-67
2023/12/24 00:44:15;;;;;;;1999.90;999.90;;;9.40;99.90;;;;;;5026703;28;20414;-68
2023/12/24 00:46:42;;;;;;;1999.90;999.90;;;9.40;99.90;;;;;;5031027;28;20438;-70
2023/12/24 00:49:08;;;;;;;1999.90;999.90;;;9.50;99.90;;;;;;5030080;28;20897;-67
2023/12/24 00:51:35;;;;;;;1999.90;999.90;;;9.40;99.90;;;;;;5033312;28;20449;-70
2023/12/24 00:54:03;;;;;;;1999.90;999.90;;;9.40;99.90;;;;;;5031063;28;20415;-70
2023/12/24 00:56:30;;;;;;;1999.90;999.90;;;9.40;99.90;;;;;;5030877;28;20428;-70
2023/12/24 00:58:56;;;;;;;1999.90;999.90;;;9.40;99.90;;;;;;5032025;28;20476;-70
2023/12/24 01:01:23;;;;;;;1999.90;999.90;;;9.40;99.90;;;;;;5030568;28;20414;-70
2023/12/24 01:03:49;;;;;;;1999.90;999.90;;;9.40;99.90;;;;;;5031186;28;20465;-70
2023/12/24 01:06:17;;;;;;;1999.90;999.90;;;9.50;99.90;;;;;;5030892;28;20505;-70
2023/12/24 01:08:43;;;;;;;1999.90;999.90;;;9.50;99.90;;;;;;5029050;28;20967;-70
2023/12/24 01:11:12;;;;;;;1999.90;999.90;;;9.50;99.90;;;;;;5035534;28;20449;-69
2023/12/24 01:13:39;;;;;;;1999.90;999.90;;;9.20;99.90;;;;;;5030672;28;20985;-67
2023/12/24 01:16:07;;;;;;;1999.90;999.90;;;9.40;99.90;;;;;;5030260;28;20893;-68
2023/12/24 01:18:34;;;;;;;1999.90;999.90;;;9.40;99.90;;;;;;5031050;28;20428;-70
2023/12/24 01:21:01;;;;;;;1999.90;999.90;;;9.40;99.90;;;;;;5031041;28;20541;-69
2023/12/24 01:23:27;;;;;;;1999.90;999.90;;;9.40;99.90;;;;;;5035658;28;20830;-69
2023/12/24 01:25:54;;;;;;;1999.90;999.90;;;9.40;99.90;;;;;;5028544;28;20415;-69
2023/12/24 01:28:22;;;;;;;1999.90;999.90;;;9.40;99.90;;;;;;5028020;28;20493;-69
2023/12/24 01:30:48;;;;;;;1999.90;999.90;;;9.40;99.90;;;;;;5030999;28;20430;-70
2023/12/24 01:33:15;;;;;;;1999.90;999.90;;;9.40;99.90;;;;;;5032134;28;20427;-68
2023/12/24 01:35:43;;;;;;;1999.90;999.90;;;9.40;99.90;;;;;;5028392;28;20415;-70
2023/12/24 01:38:10;;;;;;;1999.90;999.90;;;9.40;99.90;;;;;;5027460;28;20431;-70
2023/12/24 01:40:36;;;;;;;1999.90;999.90;;;9.50;99.90;;;;;;5030120;28;20442;-69
2023/12/24 01:43:03;;;;;;;1999.90;999.90;;;9.50;99.90;;;;;;5031909;28;20434;-70
2023/12/24 01:45:31;;;;;;;1999.90;999.90;;;9.50;99.90;;;;;;5024397;28;20420;-70
2023/12/24 01:47:58;;;;;;;1999.90;999.90;;;9.50;99.90;;;;;;5028165;28;20448;-70
2023/12/24 01:50:25;;;;;;;1999.90;999.90;;;9.40;99.90;;;;;;5030696;28;20954;-70
2023/12/24 01:52:52;;;;;;;1999.90;999.90;;;9.40;99.90;;;;;;5033078;28;20419;-70
2023/12/24 01:55:20;;;;;;;1999.90;999.90;;;9.50;99.90;;;;;;5029244;28;20477;-71
2023/12/24 01:57:47;;;;;;;1999.90;999.90;;;9.50;99.90;;;;;;5021836;28;20852;-70
2023/12/24 02:00:16;;;;;;;1999.90;999.90;;;9.40;99.90;;;;;;5030694;28;20443;-70
2023/12/24 02:02:44;;;;;;;1999.90;999.90;;;9.50;99.90;;;;;;5031485;28;20447;-70
2023/12/24 02:05:11;;;;;;;1999.90;999.90;;;9.50;99.90;;;;;;5026442;28;20422;-69
2023/12/24 02:07:40;;;;;;;1999.90;999.90;;;9.50;99.90;;;;;;5028230;28;20485;-70
2023/12/24 02:10:08;;;;;;;1999.90;999.90;;;9.50;99.90;;;;;;5028691;28;20500;-70
2023/12/24 02:12:35;;;;;;;1999.90;999.90;;;9.50;99.90;;;;;;5025259;28;20474;-69
2023/12/24 02:15:02;;;;;;;1999.90;999.90;;;9.50;99.90;;;;;;5024890;28;20414;-69
2023/12/24 02:17:30;;;;;;;1999.90;999.90;;;9.60;99.90;;;;;;5029280;28;20892;-70
2023/12/24 02:19:58;;;;;;;1999.90;999.90;;;9.50;99.90;;;;;;5030026;28;20998;-70
2023/12/24 02:22:27;;;;;;;1999.90;999.90;;;9.50;99.90;;;;;;5030058;28;20889;-69
2023/12/24 02:24:55;;;;;;;1999.90;999.90;;;9.60;99.90;;;;;;5025559;28;20419;-69
2023/12/24 02:27:31;;;;;;;1999.90;999.90;;;9.50;99.90;;;;;;5033538;28;20828;-69
2023/12/24 02:30:03;;;;;;;1999.90;999.90;;;9.50;99.90;;;;;;5033310;28;20937;-70
2023/12/24 02:32:30;;;;;;;1999.90;999.90;;;9.50;99.90;;;;;;5035937;28;20433;-70
2023/12/24 02:34:59;;;;;;;1999.90;999.90;;;9.40;99.90;;;;;;5033302;28;20415;-70
2023/12/24 02:37:27;;;;;;;1999.90;999.90;;;9.40;99.90;;;;;;5026024;28;20908;-70
2023/12/24 02:39:54;;;;;;;1999.90;999.90;;;9.40;99.90;;;;;;5028315;28;20488;-69
2023/12/24 02:42:20;;;;;;;1999.90;999.90;;;9.40;99.90;;;;;;5035362;28;20480;-70
2023/12/24 02:44:47;;;;;;;1999.90;999.90;;;9.40;99.90;;;;;;5031659;28;20476;-69
2023/12/24 02:47:13;;;;;;;1999.90;999.90;;;9.40;99.90;;;;;;5033406;28;20414;-68
2023/12/24 02:49:40;;;;;;;1999.90;999.90;;;9.30;99.90;;;;;;5031001;28;20563;-69
2023/12/24 02:52:07;;;;;;;1999.90;999.90;;;9.30;99.90;;;;;;5030354;28;20778;-69
2023/12/24 02:54:34;;;;;;;1999.90;999.90;;;9.30;99.90;;;;;;5032877;28;20418;-71
2023/12/24 02:57:00;;;;;;;1999.90;999.90;;;9.30;99.90;;;;;;5032725;28;20828;-70
2023/12/24 02:59:28;;;;;;;1999.90;999.90;;;9.30;99.90;;;;;;5031197;28;20925;-70
2023/12/24 03:01:54;;;;;;;1999.90;999.90;;;9.30;99.90;;;;;;5033493;28;20426;-70
2023/12/24 03:04:21;;;;;;;1999.90;999.90;;;9.40;99.90;;;;;;5027150;28;20413;-69
2023/12/24 03:06:47;;;;;;;1999.90;999.90;;;9.30;99.90;;;;;;5030070;28;20474;-69
2023/12/24 03:09:14;;;;;;;1999.90;999.90;;;9.30;99.90;;;;;;5031265;28;20920;-67
2023/12/24 03:11:42;;;;;;;1999.90;999.90;;;9.30;99.90;;;;;;5026532;28;20453;-70
2023/12/24 03:14:09;;;;;;;1999.90;999.90;;;9.30;99.90;;;;;;5027077;28;20961;-71
2023/12/24 03:16:35;;;;;;;1999.90;999.90;;;9.20;99.90;;;;;;5031232;28;20435;-69
2023/12/24 03:19:02;;;;;;;1999.90;999.90;;;9.30;99.90;;;;;;5032450;28;20434;-70
2023/12/24 03:21:28;;;;;;;1999.90;999.90;;;9.30;99.90;;;;;;5031840;28;20426;-66
2023/12/24 03:23:54;;;;;;;1999.90;999.90;;;9.30;99.90;;;;;;5031822;28;20449;-70
2023/12/24 03:26:21;;;;;;;1999.90;999.90;;;9.40;99.90;;;;;;5030485;28;20427;-69
2023/12/24 03:28:51;;;;;;;1999.90;999.90;;;9.40;99.90;;;;;;5031025;28;20419;-70
2023/12/24 03:31:18;;;;;;;1999.90;999.90;;;9.50;99.90;;;;;;5030303;28;20418;-69
2023/12/24 03:33:44;;;;;;;1999.90;999.90;;;9.40;99.90;;;;;;5030621;28;20411;-69
2023/12/24 03:36:11;;;;;;;1999.90;999.90;;;9.40;99.90;;;;;;5028756;28;20921;-70
2023/12/24 03:38:38;;;;;;;1999.90;999.90;;;9.50;99.90;;;;;;5030682;28;20953;-70
2023/12/24 03:41:05;;;;;;;1999.90;999.90;;;9.50;99.90;;;;;;5026345;28;20832;-70
2023/12/24 03:43:31;;;;;;;1999.90;999.90;;;9.50;99.90;;;;;;5030515;28;20445;-68
2023/12/24 03:45:59;;;;;;;1999.90;999.90;;;9.60;99.90;;;;;;5032701;28;20415;-70
2023/12/24 03:48:26;;;;;;;1999.90;999.90;;;9.60;99.90;;;;;;5025918;28;20412;-70
2023/12/24 03:50:53;;;;;;;1999.90;999.90;;;9.70;99.90;;;;;;5030174;28;21008;-68
2023/12/24 03:53:19;;;;;;;1999.90;999.90;;;9.60;99.90;;;;;;5031124;28;20469;-70
2023/12/24 03:55:46;;;;;;;1999.90;999.90;;;9.60;99.90;;;;;;5024669;28;20419;-70
2023/12/24 03:58:12;;;;;;;1999.90;999.90;;;9.70;99.90;;;;;;5031972;28;20497;-70
2023/12/24 04:00:39;;;;;;;1999.90;999.90;;;9.60;99.90;;;;;;5031788;28;20415;-70
2023/12/24 04:03:07;;;;;;;1999.90;999.90;;;9.60;99.90;;;;;;5025056;28;20545;-70
2023/12/24 04:05:34;;;;;;;1999.90;999.90;;;9.60;99.90;;;;;;5031251;28;20968;-70
2023/12/24 04:08:00;;;;;;;1999.90;999.90;;;9.60;99.90;;;;;;5031591;28;20473;-70
2023/12/24 04:10:27;;;;;;;1999.90;999.90;;;9.60;99.90;;;;;;5031376;28;20419;-67
2023/12/24 04:12:54;;;;;;;1999.90;999.90;;;9.60;99.90;;;;;;5025662;28;20469;-67
2023/12/24 04:15:20;;;;;;;1999.90;999.90;;;9.60;99.90;;;;;;5031556;28;20433;-69
2023/12/24 04:17:47;;;;;;;1999.90;999.90;;;9.50;99.90;;;;;;5034596;28;20476;-68
2023/12/24 04:20:15;;;;;;;1999.90;999.90;;;9.60;99.90;;;;;;5031247;28;20606;-69
2023/12/24 04:22:42;;;;;;;1999.90;999.90;;;9.60;99.90;;;;;;5031322;28;20941;-70
2023/12/24 04:25:09;;;;;;;1999.90;999.90;;;9.60;99.90;;;;;;5027957;28;20483;-69
2023/12/24 04:27:35;;;;;;;1999.90;999.90;;;9.60;99.90;;;;;;5031578;28;20477;-69
2023/12/24 04:30:02;;;;;;;1999.90;999.90;;;9.60;99.90;;;;;;5031137;28;20442;-69
2023/12/24 04:32:29;;;;;;;1999.90;999.90;;;9.60;99.90;;;;;;5031542;28;20446;-69
2023/12/24 04:34:55;;;;;;;1999.90;999.90;;;9.60;99.90;;;;;;5034137;28;20445;-68
2023/12/24 04:37:23;;;;;;;1999.90;999.90;;;9.70;99.90;;;;;;5034327;28;20889;-69
2023/12/24 04:39:50;;;;;;;1999.90;999.90;;;9.60;99.90;;;;;;5030947;28;20427;-69
2023/12/24 04:42:17;;;;;;;1999.90;999.90;;;9.70;99.90;;;;;;5031237;28;20507;-69
2023/12/24 04:44:43;;;;;;;1999.90;999.90;;;9.70;99.90;;;;;;5025615;28;20445;-70
2023/12/24 04:47:11;;;;;;;1999.90;999.90;;;9.70;99.90;;;;;;5027281;28;20423;-69
2023/12/24 04:49:38;;;;;;;1999.90;999.90;;;9.70;99.90;;;;;;5030354;28;20415;-69
2023/12/24 04:52:04;;;;;;;1999.90;999.90;;;9.70;99.90;;;;;;5031140;28;20469;-69
2023/12/24 04:54:32;;;;;;;1999.90;999.90;;;9.70;99.90;;;;;;5028620;28;20419;-69
2023/12/24 04:56:59;;;;;;;1999.90;999.90;;;9.70;99.90;;;;;;5026328;28;20565;-70
2023/12/24 04:59:25;;;;;;;1999.90;999.90;;;9.70;99.90;;;;;;5025348;28;21703;-67
2023/12/24 05:01:52;;;;;;;1999.90;999.90;;;9.70;99.90;;;;;;5037292;28;20415;-69
2023/12/24 05:04:19;;;;;;;1999.90;999.90;;;9.70;99.90;;;;;;5037166;28;20507;-70
2023/12/24 05:06:45;;;;;;;1999.90;999.90;;;9.70;99.90;;;;;;5029931;28;20418;-68
2023/12/24 05:09:23;;;;;;;1999.90;999.90;;;9.60;99.90;;;;;;5106958;27;20354;-68
2023/12/24 05:11:49;;;;;;;1999.90;999.90;;;9.70;99.90;;;;;;5091124;28;20418;-68
2023/12/24 05:14:16;;;;;;;1999.90;999.90;;;9.70;99.90;;;;;;5086078;28;20978;-68
2023/12/24 05:16:42;;;;;;;1999.90;999.90;;;9.70;99.90;;;;;;5087740;28;20411;-68
2023/12/24 05:19:09;;;;;;;1999.90;999.90;;;9.80;99.90;;;;;;5087159;28;20411;-68
2023/12/24 05:21:36;;;;;;;1999.90;999.90;;;9.80;99.90;;;;;;5086686;28;20410;-70
2023/12/24 05:24:02;;;;;;;1999.90;999.90;;;9.80;99.90;;;;;;5085749;28;20441;-68
2023/12/24 05:26:30;;;;;;;1999.90;999.90;;;9.80;99.90;;;;;;5086729;28;20410;-71
2023/12/24 05:28:57;;;;;;;1999.90;999.90;;;9.80;99.90;;;;;;5086683;28;20790;-68
2023/12/24 05:31:24;;;;;;;1999.90;999.90;;;9.80;99.90;;;;;;5086743;28;20468;-68
2023/12/24 05:33:50;;;;;;;1999.90;999.90;;;9.90;99.90;;;;;;5084694;28;20539;-69
2023/12/24 05:36:17;;;;;;;1999.90;999.90;;;9.90;99.90;;;;;;5086094;28;20812;-68
2023/12/24 05:38:43;;;;;;;1999.90;999.90;;;9.90;99.90;;;;;;5086695;28;20411;-68
2023/12/24 05:41:10;;;;;;;1999.90;999.90;;;10.00;99.90;;;;;;5086738;28;20411;-68
2023/12/24 05:43:38;;;;;;;1999.90;999.90;;;9.90;99.90;;;;;;5085123;28;20411;-68
2023/12/24 05:46:10;;;;;;;1999.90;999.90;;;10.00;99.90;;;;;;5085931;28;20901;-68
2023/12/24 05:48:37;;;;;;;1999.90;999.90;;;9.90;99.90;;;;;;5086282;28;20516;-68
2023/12/24 05:51:04;;;;;;;1999.90;999.90;;;9.90;99.90;;;;;;5086232;28;20477;-68
2023/12/24 05:53:31;;;;;;;1999.90;999.90;;;9.90;99.90;;;;;;5085458;28;20411;-69
2023/12/24 05:55:57;;;;;;;1999.90;999.90;;;10.00;99.90;;;;;;5082986;28;20420;-69
2023/12/24 05:58:25;;;;;;;1999.90;999.90;;;10.00;99.90;;;;;;5085204;28;20578;-66
2023/12/24 06:00:53;;;;;;;1999.90;999.90;;;10.00;99.90;;;;;;5086107;28;20442;-69
2023/12/24 06:03:19;;;;;;;1999.90;999.90;;;10.00;99.90;;;;;;5086364;28;20484;-68
2023/12/24 06:05:45;;;;;;;1999.90;999.90;;;10.10;99.90;;;;;;5084696;28;21002;-66
2023/12/24 06:08:14;;;;;;;1999.90;999.90;;;10.10;99.90;;;;;;5095612;28;20918;-71
2023/12/24 06:10:41;;;;;;;1999.90;999.90;;;10.10;99.90;;;;;;5106329;28;20565;-68
2023/12/24 06:13:08;;;;;;;1999.90;999.90;;;10.10;99.90;;;;;;5106401;28;20992;-68
2023/12/24 06:15:34;;;;;;;1999.90;999.90;;;10.20;99.90;;;;;;5104886;28;20425;-69
2023/12/24 06:18:02;;;;;;;1999.90;999.90;;;10.20;99.90;;;;;;5106089;28;20406;-70
2023/12/24 06:20:29;;;;;;;1999.90;999.90;;;10.20;99.90;;;;;;5093733;28;20414;-70
2023/12/24 06:22:56;;;;;;;1999.90;999.90;;;10.20;99.90;;;;;;5092816;28;20486;-69
2023/12/24 06:25:23;;;;;;;1999.90;999.90;;;10.20;99.90;;;;;;5091167;28;20565;-68
2023/12/24 06:27:49;;;;;;;1999.90;999.90;;;10.20;99.90;;;;;;5092194;28;20475;-70
2023/12/24 06:30:16;;;;;;;1999.90;999.90;;;10.20;99.90;;;;;;5088079;28;20463;-68
2023/12/24 06:32:44;;;;;;;1999.90;999.90;;;10.10;99.90;;;;;;5092555;28;20414;-69
2023/12/24 06:35:12;;;;;;;1999.90;999.90;;;10.10;99.90;;;;;;5091222;28;20430;-68
2023/12/24 06:37:38;;;;;;;1999.90;999.90;;;10.10;99.90;;;;;;5092222;28;20414;-69
2023/12/24 06:40:06;;;;;;;1999.90;999.90;;;10.20;99.90;;;;;;5091901;28;20410;-68
2023/12/24 06:42:33;;;;;;;1999.90;999.90;;;10.20;99.90;;;;;;5092022;28;20788;-68
2023/12/24 06:44:59;;;;;;;1999.90;999.90;;;10.20;99.90;;;;;;5090828;28;20425;-67
2023/12/24 06:47:26;;;;;;;1999.90;999.90;;;10.20;99.90;;;;;;5091684;28;20410;-69
2023/12/24 06:49:52;;;;;;;1999.90;999.90;;;10.10;99.90;;;;;;5091622;28;20417;-69
2023/12/24 06:52:20;;;;;;;1999.90;999.90;;;10.20;99.90;;;;;;5090564;28;20413;-68
2023/12/24 06:54:47;;;;;;;1999.90;999.90;;;10.20;99.90;;;;;;5087223;28;20429;-66
2023/12/24 06:57:14;;;;;;;1999.90;999.90;;;10.20;99.90;;;;;;5091341;28;20807;-67
2023/12/24 06:59:40;;;;;;;1999.90;999.90;;;10.30;99.90;;;;;;5091488;28;20414;-67
2023/12/24 07:02:08;;;;;;;1999.90;999.90;;;10.30;99.90;;;;;;5086177;28;20956;-67
2023/12/24 07:04:35;;;;;;;1999.90;999.90;;;10.30;99.90;;;;;;5090483;28;20923;-68
2023/12/24 07:07:02;;;;;;;1999.90;999.90;;;10.30;99.90;;;;;;5091273;28;20402;-68
2023/12/24 07:09:30;;;;;;;1999.90;999.90;;;10.30;99.90;;;;;;5091020;28;20475;-69
2023/12/24 07:11:56;;;;;;;1999.90;999.90;;;10.40;99.90;;;;;;5091563;28;20414;-66
2023/12/24 07:14:23;;;;;;;1999.90;999.90;;;10.30;99.90;;;;;;5089501;28;20988;-66
2023/12/24 07:16:49;;;;;;;1999.90;999.90;;;10.40;99.90;;;;;;5091334;28;20410;-67
2023/12/24 07:19:16;;;;;;;1999.90;999.90;;;10.40;99.90;;;;;;5091354;28;20459;-66
2023/12/24 07:21:43;;;;;;;1999.90;999.90;;;10.40;99.90;;;;;;5090776;28;20418;-64
2023/12/24 07:24:12;;;;;;;1999.90;999.90;;;10.40;99.90;;;;;;5089594;28;20441;-66
2023/12/24 07:26:40;;;;;;;1999.90;999.90;;;10.40;99.90;;;;;;5091160;28;20410;-67
2023/12/24 07:29:06;;;;;;;1999.90;999.90;;;10.40;99.90;;;;;;5089489;28;20425;-68
2023/12/24 07:31:33;;;;;;;1999.90;999.90;;;10.50;99.90;;;;;;5089706;28;20501;-67
2023/12/24 07:34:00;;;;;;;1999.90;999.90;;;10.50;99.90;;;;;;5088441;28;20426;-66
2023/12/24 07:36:26;;;;;;;1999.90;999.90;;;10.40;99.90;;;;;;5086196;28;20426;-66
2023/12/24 07:38:53;;;;;;;1999.90;999.90;;;10.40;99.90;;;;;;5090549;28;20495;-67
2023/12/24 07:41:19;;;;;;;1999.90;999.90;;;10.40;99.90;;;;;;5089567;28;20785;-65
2023/12/24 07:43:47;;;;;;;1999.90;999.90;;;10.40;99.90;;;;;;5090784;28;20463;-67
2023/12/24 07:46:14;;;;;;;1999.90;999.90;;;10.40;99.90;;;;;;5089211;28;20434;-66
2023/12/24 07:48:40;;;;;;;1999.90;999.90;;;10.40;99.90;;;;;;5090530;28;20771;-66
2023/12/24 07:51:07;;;;;;;1999.90;999.90;;;10.40;99.90;;;;;;5088068;28;20413;-67
2023/12/24 07:53:34;;;;;;;1999.90;999.90;;;10.50;99.90;;;;;;5090756;28;20414;-67
2023/12/24 07:56:00;;;;;;;1999.90;999.90;;;10.40;99.90;;;;;;5090913;28;20418;-66
2023/12/24 07:58:27;;;;;;;1999.90;999.90;;;10.40;99.90;;;;;;5088284;28;20757;-66
2023/12/24 08:00:55;;;;;;;1999.90;999.90;;;10.40;99.90;;;;;;5087881;28;20483;-67
2023/12/24 08:03:21;;;;;;;1999.90;999.90;;;10.40;99.90;;;;;;5090436;28;20956;-65
2023/12/24 08:05:48;;;;;;;1999.90;999.90;;;10.40;99.90;;;;;;5085842;28;20453;-68
2023/12/24 08:08:15;;;;;;;1999.90;999.90;;;10.40;99.90;;;;;;5086372;28;20422;-68
2023/12/24 08:10:41;;;;;;;1999.90;999.90;;;10.30;99.90;;;;;;5089017;28;20417;-65
2023/12/24 08:13:08;;;;;;;1999.90;999.90;;;10.40;99.90;;;;;;5090199;28;20433;-68
2023/12/24 08:15:35;;;;;;;1999.90;999.90;;;10.40;99.90;;;;;;5089504;28;20435;-68
2023/12/24 08:18:03;;;;;;;1999.90;999.90;;;10.50;99.90;;;;;;5089909;28;20895;-66
2023/12/24 08:20:30;;;;;;;1999.90;999.90;;;10.50;99.90;;;;;;5089101;28;20896;-66
2023/12/24 08:22:56;;;;;;;1999.90;999.90;;;10.60;99.90;;;;;;5089956;28;20471;-68
2023/12/24 08:25:23;;;;;;;1999.90;999.90;;;10.60;99.90;;;;;;5089806;28;20417;-66
2023/12/24 08:27:50;;;;;;;1999.90;999.90;;;10.60;99.90;;;;;;5090312;28;20413;-68
2023/12/24 08:30:17;;;;;;;1999.90;999.90;;;10.60;99.90;;;;;;5088341;28;20773;-67
2023/12/24 08:32:45;;;;;;;1999.90;999.90;;;10.60;99.90;;;;;;5089967;28;20425;-65
2023/12/24 08:35:13;;;;;;;1999.90;999.90;;;10.60;99.90;;;;;;5089956;28;20930;-68
2023/12/24 08:37:40;;;;;;;1999.90;999.90;;;10.70;99.90;;;;;;5090015;28;20455;-69
2023/12/24 08:40:08;;;;;;;1999.90;999.90;;;10.70;99.90;;;;;;5088666;28;20410;-67
2023/12/24 08:42:34;;;;;;;1999.90;999.90;;;10.70;99.90;;;;;;5086917;28;20854;-65
2023/12/24 08:45:01;;;;;;;1999.90;999.90;;;10.70;99.90;;;;;;5085409;28;20508;-65
2023/12/24 08:47:28;;;;;;;1999.90;999.90;;;10.70;99.90;;;;;;5081340;28;20406;-67
2023/12/24 08:49:54;;;;;;;1999.90;999.90;;;10.80;99.90;;;;;;5084909;28;20430;-68
2023/12/24 08:52:22;;;;;;;1999.90;999.90;;;10.80;99.90;;;;;;5088369;28;20437;-65
2023/12/24 08:54:49;;;;;;;1999.90;999.90;;;10.90;99.90;;;;;;5087382;28;20402;-66
2023/12/24 08:57:16;;;;;;;1999.90;999.90;;;10.90;99.90;;;;;;5089113;28;20881;-67
2023/12/24 08:59:43;;;;;;;1999.90;999.90;;;10.80;99.90;;;;;;5089551;28;20883;-67
2023/12/24 09:02:09;;;;;;;1999.90;999.90;;;10.80;99.90;;;;;;5085418;28;20773;-67
2023/12/24 09:04:36;;;;;;;1999.90;999.90;;;10.90;99.90;;;;;;5088894;28;20438;-68
2023/12/24 09:07:03;;;;;;;1999.90;999.90;;;11.00;99.90;;;;;;5089175;28;20406;-67
2023/12/24 09:09:31;;;;;;;1999.90;999.90;;;10.90;99.90;;;;;;5089224;28;20892;-66
2023/12/24 09:11:57;;;;;;;1999.90;999.90;;;10.90;99.90;;;;;;5089597;28;20459;-68
2023/12/24 09:14:24;;;;;;;1999.90;999.90;;;11.00;99.90;;;;;;5088127;28;20488;-66
2023/12/24 09:16:50;;;;;;;1999.90;999.90;;;11.00;99.90;;;;;;5089493;28;20459;-65
2023/12/24 09:19:17;;;;;;;1999.90;999.90;;;11.00;99.90;;;;;;5086646;28;20436;-67
2023/12/24 09:21:44;;;;;;;1999.90;999.90;;;11.00;99.90;;;;;;5089079;28;20892;-67
2023/12/24 09:24:10;;;;;;;1999.90;999.90;;;11.10;99.90;;;;;;5088910;28;20500;-66
2023/12/24 09:26:38;;;;;;;1999.90;999.90;;;11.00;99.90;;;;;;5087804;28;20431;-67
2023/12/24 09:29:05;;;;;;;1999.90;999.90;;;11.00;99.90;;;;;;5087496;28;20422;-68
2023/12/24 09:31:31;;;;;;;1999.90;999.90;;;11.10;99.90;;;;;;5089271;28;20406;-66
2023/12/24 09:33:59;;;;;;;1999.90;999.90;;;11.10;99.90;;;;;;5089722;28;20463;-65
2023/12/24 09:36:26;;;;;;;1999.90;999.90;;;11.10;99.90;;;;;;5089459;28;20500;-67
2023/12/24 09:38:52;;;;;;;1999.90;999.90;;;11.20;99.90;;;;;;5084068;28;20502;-65
2023/12/24 09:41:19;;;;;;;1999.90;999.90;;;11.30;99.90;;;;;;5088799;28;20482;-65
2023/12/24 09:43:47;;;;;;;1999.90;999.90;;;11.30;99.90;;;;;;5089478;28;20429;-68
2023/12/24 09:46:14;;;;;;;1999.90;999.90;;;11.30;99.90;;;;;;5089556;28;20433;-66
2023/12/24 09:48:40;;;;;;;1999.90;999.90;;;11.30;99.90;;;;;;5087862;28;20491;-66
2023/12/24 09:51:08;;;;;;;1999.90;999.90;;;11.30;99.90;;;;;;5087622;28;20502;-68
2023/12/24 09:53:35;;;;;;;1999.90;999.90;;;11.40;99.90;;;;;;5086901;28;20502;-65
2023/12/24 09:56:02;;;;;;;1999.90;999.90;;;11.40;99.90;;;;;;5087971;28;20425;-67
2023/12/24 09:58:30;;;;;;;1999.90;999.90;;;11.40;99.90;;;;;;5088821;28;20783;-68
2023/12/24 10:00:58;;;;;;;1999.90;999.90;;;11.40;99.90;;;;;;5088458;28;20799;-67
2023/12/24 10:03:24;;;;;;;1999.90;999.90;;;11.40;99.90;;;;;;5090913;28;20866;-68
2023/12/24 10:06:02;;;;;;;1999.90;999.90;;;11.40;99.90;;;;;;5088858;28;20455;-67
2023/12/24 10:08:29;;;;;;;1999.90;999.90;;;11.50;99.90;;;;;;5089783;28;20421;-67
2023/12/24 10:10:56;;;;;;;1999.90;999.90;;;11.60;99.90;;;;;;5090337;28;20421;-68
2023/12/24 10:13:23;;;;;;;1999.90;999.90;;;11.50;99.90;;;;;;5087485;28;20476;-68
2023/12/24 10:16:04;;;;;;;1999.90;999.90;;;11.50;99.90;;;;;;5087891;28;20425;-67
2023/12/24 10:18:31;;;;;;;1999.90;999.90;;;11.50;99.90;;;;;;5089294;28;20422;-67
2023/12/24 10:21:04;;;;;;;1999.90;999.90;;;11.40;99.90;;;;;;5092699;28;20410;-68
2023/12/24 10:23:31;;;;;;;1999.90;999.90;;;11.50;99.90;;;;;;5092933;28;20429;-68
2023/12/24 10:26:02;;;;;;;1999.90;999.90;;;11.50;99.90;;;;;;5087653;28;20442;-66
2023/12/24 10:28:28;;;;;;;1999.90;999.90;;;11.50;99.90;;;;;;5085830;28;20440;-67
2023/12/24 10:31:07;;;;;;;1999.90;999.90;;;11.60;99.90;;;;;;5089447;28;20421;-68
2023/12/24 10:33:34;;;;;;;1999.90;999.90;;;11.60;99.90;;;;;;5092208;28;20418;-68
2023/12/24 10:36:01;;;;;;;1999.90;999.90;;;11.70;99.90;;;;;;5088516;28;20410;-68
2023/12/24 10:38:28;;;;;;;1999.90;999.90;;;11.80;99.90;;;;;;5092075;28;20417;-68
2023/12/24 10:40:53;;;;;;;1999.90;999.90;;;11.80;99.90;;;;;;5086455;28;20942;-67
2023/12/24 10:43:20;;;;;;;1999.90;999.90;;;11.70;99.90;;;;;;5084972;28;20425;-66
2023/12/24 10:45:47;;;;;;;1999.90;999.90;;;11.80;99.90;;;;;;5086415;28;20471;-66
2023/12/24 10:48:15;;;;;;;1999.90;999.90;;;11.70;99.90;;;;;;5091441;28;20410;-65
2023/12/24 10:50:42;;;;;;;1999.90;999.90;;;11.80;99.90;;;;;;5088785;28;20471;-65
2023/12/24 10:53:09;;;;;;;1999.90;999.90;;;11.80;99.90;;;;;;5091570;28;20472;-65
2023/12/24 10:55:36;;;;;;;1999.90;999.90;;;11.80;99.90;;;;;;5087634;28;20457;-67
2023/12/24 10:58:10;;;;;;;1999.90;999.90;;;11.70;99.90;;;;;;5089968;28;20414;-65
2023/12/24 11:00:37;;;;;;;1999.90;999.90;;;11.90;99.90;;;;;;5088491;28;20421;-64
2023/12/24 11:03:04;;;;;;;1999.90;999.90;;;11.90;99.90;;;;;;5089434;28;20551;-65
2023/12/24 11:05:50;;;;;;;1999.90;999.90;;;12.00;99.90;;;;;;5091030;28;20463;-65
2023/12/24 11:08:30;;;;;;;1999.90;999.90;;;12.00;99.90;;;;;;5089600;28;20432;-65
2023/12/24 11:10:57;;;;;;;1999.90;999.90;;;12.00;99.90;;;;;;5090986;28;20426;-65
2023/12/24 11:13:46;;;;;;;1999.90;999.90;;;12.20;99.90;;;;;;5088919;28;20434;-66
2023/12/24 11:16:33;;;;;;;1999.90;999.90;;;12.10;99.90;;;;;;5087043;28;20429;-65
2023/12/24 11:19:00;;;;;;;1999.90;999.90;;;12.10;99.90;;;;;;5087165;28;20459;-64
2023/12/24 11:21:28;;;;;;;1999.90;999.90;;;12.10;99.90;;;;;;5090898;28;20880;-66
2023/12/24 11:24:21;;;;;;;1999.90;999.90;;;12.10;99.90;;;;;;5091200;28;20410;-66
2023/12/24 11:26:50;;;;;;;1999.90;999.90;;;12.20;99.90;;;;;;5085281;28;20498;-65
2023/12/24 11:29:41;;;;;;;1999.90;999.90;;;12.20;99.90;;;;;;5089738;28;20430;-65
2023/12/24 11:32:38;;;;;;;1999.90;999.90;;;12.20;99.90;;;;;;5085547;28;20433;-64
2023/12/24 11:35:06;;;;;;;1999.90;999.90;;;12.10;99.90;;;;;;5083578;28;20436;-65
2023/12/24 11:37:35;;;;;;;1999.90;999.90;;;12.20;99.90;;;;;;5089708;28;20433;-68
2023/12/24 11:40:04;;;;;;;1999.90;999.90;;;12.20;99.90;;;;;;5090252;28;20402;-64
2023/12/24 11:42:44;;;;;;;1999.90;999.90;;;12.30;99.90;;;;;;5087241;28;20425;-65
2023/12/24 11:45:20;;;;;;;1999.90;999.90;;;12.40;99.90;;;;;;5087823;28;20919;-65
2023/12/24 11:47:47;;;;;;;1999.90;999.90;;;12.40;99.90;;;;;;5086540;28;20847;-65
2023/12/24 11:50:14;;;;;;;1999.90;999.90;;;12.50;99.90;;;;;;5088443;28;20483;-65
2023/12/24 11:52:44;;;;;;;1999.90;999.90;;;12.60;99.90;;;;;;5087888;28;20426;-68
2023/12/24 11:55:15;;;;;;;1999.90;999.90;;;12.70;99.90;;;;;;5087333;28;20506;-68
2023/12/24 11:57:42;;;;;;;1999.90;999.90;;;12.70;99.90;;;;;;5090385;28;20406;-68
2023/12/24 12:00:13;;;;;;;1999.90;999.90;;;12.70;99.90;;;;;;5089483;28;20426;-68
2023/12/24 12:02:40;;;;;;;1999.90;999.90;;;12.70;99.90;;;;;;5092891;28;20541;-68
2023/12/24 12:05:08;;;;;;;1999.90;999.90;;;12.80;99.90;;;;;;5079300;28;20533;-68